sensor_id;sensor_type;location;lat;lon;timestamp;P1;durP1;ratioP1;P2;durP2;ratioP2
47161;SDS011;32921;53.256;8.198;2022-08-03T00:02:21;11.88;;;4.10;;
47161;SDS011;32921;53.256;8.198;2022-08-03T00:04:47;6.97;;;3.83;;
47161;SDS011;32921;53.256;8.198;2022-08-03T00:07:13;6.80;;;4.15;;
47161;SDS011;32921;53.256;8.198;2022-08-03T00:09:38;7.53;;;3.60;;
47161;SDS011;32921;53.256;8.198;2022-08-03T00:12:04;6.45;;;3.92;;
47161;SDS011;32921;53.256;8.198;2022-08-03T00:14:30;5.60;;;3.60;;
47161;SDS011;32921;53.256;8.198;2022-08-03T00:16:55;5.78;;;3.58;;
47161;SDS011;32921;53.256;8.198;2022-08-03T00:19:22;6.15;;;3.80;;
47161;SDS011;32921;53.256;8.198;2022-08-03T00:21:47;6.53;;;4.03;;
47161;SDS011;32921;53.256;8.198;2022-08-03T00:24:13;6.53;;;3.70;;
47161;SDS011;32921;53.256;8.198;2022-08-03T00:26:39;7.78;;;3.90;;
47161;SDS011;32921;53.256;8.198;2022-08-03T00:29:04;6.60;;;3.85;;
47161;SDS011;32921;53.256;8.198;2022-08-03T00:31:30;10.80;;;4.60;;
47161;SDS011;32921;53.256;8.198;2022-08-03T00:33:55;7.25;;;3.92;;
47161;SDS011;32921;53.256;8.198;2022-08-03T00:36:21;6.25;;;4.35;;
47161;SDS011;32921;53.256;8.198;2022-08-03T00:38:47;8.57;;;3.75;;
47161;SDS011;32921;53.256;8.198;2022-08-03T00:41:12;7.25;;;4.07;;
47161;SDS011;32921;53.256;8.198;2022-08-03T00:43:38;5.60;;;3.72;;
47161;SDS011;32921;53.256;8.198;2022-08-03T00:46:03;6.50;;;3.80;;
47161;SDS011;32921;53.256;8.198;2022-08-03T00:48:29;8.38;;;4.15;;
47161;SDS011;32921;53.256;8.198;2022-08-03T00:50:54;8.27;;;4.10;;
47161;SDS011;32921;53.256;8.198;2022-08-03T00:53:20;8.88;;;4.65;;
47161;SDS011;32921;53.256;8.198;2022-08-03T00:55:46;10.05;;;4.13;;
47161;SDS011;32921;53.256;8.198;2022-08-03T00:58:11;10.65;;;4.60;;
47161;SDS011;32921;53.256;8.198;2022-08-03T01:00:38;9.50;;;4.50;;
47161;SDS011;32921;53.256;8.198;2022-08-03T01:03:05;8.82;;;4.00;;
47161;SDS011;32921;53.256;8.198;2022-08-03T01:05:51;6.50;;;4.13;;
47161;SDS011;32921;53.256;8.198;2022-08-03T01:08:31;5.82;;;4.00;;
47161;SDS011;32921;53.256;8.198;2022-08-03T01:14:26;8.25;;;4.55;;
47161;SDS011;32921;53.256;8.198;2022-08-03T01:19:55;7.75;;;4.47;;
47161;SDS011;32921;53.256;8.198;2022-08-03T01:25:20;9.68;;;3.97;;
47161;SDS011;32921;53.256;8.198;2022-08-03T01:28:19;7.75;;;4.60;;
47161;SDS011;32921;53.256;8.198;2022-08-03T01:30:52;9.30;;;4.20;;
47161;SDS011;32921;53.256;8.198;2022-08-03T01:33:23;6.53;;;4.10;;
47161;SDS011;32921;53.256;8.198;2022-08-03T01:35:57;9.60;;;4.25;;
47161;SDS011;32921;53.256;8.198;2022-08-03T01:38:31;7.60;;;4.32;;
47161;SDS011;32921;53.256;8.198;2022-08-03T01:41:12;7.15;;;4.75;;
47161;SDS011;32921;53.256;8.198;2022-08-03T01:43:43;8.20;;;4.72;;
47161;SDS011;32921;53.256;8.198;2022-08-03T01:46:12;7.68;;;5.03;;
47161;SDS011;32921;53.256;8.198;2022-08-03T01:48:41;8.70;;;4.50;;
47161;SDS011;32921;53.256;8.198;2022-08-03T01:51:08;6.90;;;4.32;;
47161;SDS011;32921;53.256;8.198;2022-08-03T01:53:35;6.78;;;4.70;;
47161;SDS011;32921;53.256;8.198;2022-08-03T01:56:03;8.68;;;4.70;;
47161;SDS011;32921;53.256;8.198;2022-08-03T01:58:31;8.65;;;4.75;;
47161;SDS011;32921;53.256;8.198;2022-08-03T02:01:00;9.07;;;4.80;;
47161;SDS011;32921;53.256;8.198;2022-08-03T02:03:27;8.32;;;4.95;;
47161;SDS011;32921;53.256;8.198;2022-08-03T02:05:55;6.88;;;4.60;;
47161;SDS011;32921;53.256;8.198;2022-08-03T02:08:23;9.68;;;4.97;;
47161;SDS011;32921;53.256;8.198;2022-08-03T02:10:49;7.28;;;4.97;;
47161;SDS011;32921;53.256;8.198;2022-08-03T02:13:15;14.07;;;4.88;;
47161;SDS011;32921;53.256;8.198;2022-08-03T02:15:44;8.77;;;4.93;;
47161;SDS011;32921;53.256;8.198;2022-08-03T02:18:11;7.22;;;4.80;;
47161;SDS011;32921;53.256;8.198;2022-08-03T02:20:39;10.45;;;5.38;;
47161;SDS011;32921;53.256;8.198;2022-08-03T02:23:07;8.13;;;4.50;;
47161;SDS011;32921;53.256;8.198;2022-08-03T02:26:02;9.75;;;5.47;;
47161;SDS011;32921;53.256;8.198;2022-08-03T02:28:28;10.43;;;4.65;;
47161;SDS011;32921;53.256;8.198;2022-08-03T02:31:04;7.65;;;4.90;;
47161;SDS011;32921;53.256;8.198;2022-08-03T02:33:36;9.63;;;4.85;;
47161;SDS011;32921;53.256;8.198;2022-08-03T02:36:05;6.32;;;4.47;;
47161;SDS011;32921;53.256;8.198;2022-08-03T02:38:35;8.40;;;4.20;;
47161;SDS011;32921;53.256;8.198;2022-08-03T02:41:04;7.38;;;4.82;;
47161;SDS011;32921;53.256;8.198;2022-08-03T02:43:32;8.57;;;4.50;;
47161;SDS011;32921;53.256;8.198;2022-08-03T02:45:59;6.88;;;4.43;;
47161;SDS011;32921;53.256;8.198;2022-08-03T02:48:29;7.57;;;4.45;;
47161;SDS011;32921;53.256;8.198;2022-08-03T02:50:58;10.65;;;4.80;;
47161;SDS011;32921;53.256;8.198;2022-08-03T02:53:26;9.48;;;4.93;;
47161;SDS011;32921;53.256;8.198;2022-08-03T02:55:53;10.20;;;5.03;;
47161;SDS011;32921;53.256;8.198;2022-08-03T02:58:20;10.48;;;5.10;;
47161;SDS011;32921;53.256;8.198;2022-08-03T03:00:49;8.05;;;4.80;;
47161;SDS011;32921;53.256;8.198;2022-08-03T03:03:16;8.32;;;5.05;;
47161;SDS011;32921;53.256;8.198;2022-08-03T03:05:42;7.93;;;4.82;;
47161;SDS011;32921;53.256;8.198;2022-08-03T03:08:11;7.22;;;4.82;;
47161;SDS011;32921;53.256;8.198;2022-08-03T03:10:38;7.72;;;5.22;;
47161;SDS011;32921;53.256;8.198;2022-08-03T03:13:05;6.72;;;4.60;;
47161;SDS011;32921;53.256;8.198;2022-08-03T03:15:32;8.45;;;4.40;;
47161;SDS011;32921;53.256;8.198;2022-08-03T03:18:01;11.75;;;5.70;;
47161;SDS011;32921;53.256;8.198;2022-08-03T03:20:27;9.35;;;5.28;;
47161;SDS011;32921;53.256;8.198;2022-08-03T03:22:54;6.72;;;4.97;;
47161;SDS011;32921;53.256;8.198;2022-08-03T03:25:22;7.72;;;5.22;;
47161;SDS011;32921;53.256;8.198;2022-08-03T03:27:48;10.23;;;5.68;;
47161;SDS011;32921;53.256;8.198;2022-08-03T03:30:14;8.07;;;5.18;;
47161;SDS011;32921;53.256;8.198;2022-08-03T03:32:40;12.40;;;5.43;;
47161;SDS011;32921;53.256;8.198;2022-08-03T03:35:06;8.68;;;5.15;;
47161;SDS011;32921;53.256;8.198;2022-08-03T03:37:33;9.27;;;5.53;;
47161;SDS011;32921;53.256;8.198;2022-08-03T03:39:59;8.27;;;5.00;;
47161;SDS011;32921;53.256;8.198;2022-08-03T03:42:24;12.57;;;5.70;;
47161;SDS011;32921;53.256;8.198;2022-08-03T03:44:50;9.02;;;5.25;;
47161;SDS011;32921;53.256;8.198;2022-08-03T03:47:16;7.47;;;4.85;;
47161;SDS011;32921;53.256;8.198;2022-08-03T03:49:42;9.10;;;5.40;;
47161;SDS011;32921;53.256;8.198;2022-08-03T03:52:08;6.50;;;4.22;;
47161;SDS011;32921;53.256;8.198;2022-08-03T03:54:43;6.93;;;5.07;;
47161;SDS011;32921;53.256;8.198;2022-08-03T03:57:09;7.78;;;4.68;;
47161;SDS011;32921;53.256;8.198;2022-08-03T03:59:39;11.10;;;4.93;;
47161;SDS011;32921;53.256;8.198;2022-08-03T04:02:06;8.98;;;5.15;;
47161;SDS011;32921;53.256;8.198;2022-08-03T04:04:33;7.70;;;5.38;;
47161;SDS011;32921;53.256;8.198;2022-08-03T04:07:18;11.00;;;5.22;;
47161;SDS011;32921;53.256;8.198;2022-08-03T04:10:03;10.27;;;5.50;;
47161;SDS011;32921;53.256;8.198;2022-08-03T04:12:53;8.80;;;5.05;;
47161;SDS011;32921;53.256;8.198;2022-08-03T04:15:23;9.40;;;5.28;;
47161;SDS011;32921;53.256;8.198;2022-08-03T04:17:51;8.25;;;5.35;;
47161;SDS011;32921;53.256;8.198;2022-08-03T04:20:19;8.43;;;5.03;;
47161;SDS011;32921;53.256;8.198;2022-08-03T04:22:49;10.60;;;5.82;;
47161;SDS011;32921;53.256;8.198;2022-08-03T04:25:16;7.85;;;4.90;;
47161;SDS011;32921;53.256;8.198;2022-08-03T04:27:43;15.27;;;5.45;;
47161;SDS011;32921;53.256;8.198;2022-08-03T04:30:11;9.60;;;4.85;;
47161;SDS011;32921;53.256;8.198;2022-08-03T04:32:38;8.93;;;4.97;;
47161;SDS011;32921;53.256;8.198;2022-08-03T04:35:06;10.15;;;4.82;;
47161;SDS011;32921;53.256;8.198;2022-08-03T04:37:39;9.85;;;5.95;;
47161;SDS011;32921;53.256;8.198;2022-08-03T04:40:12;9.52;;;6.10;;
47161;SDS011;32921;53.256;8.198;2022-08-03T04:42:39;10.00;;;5.82;;
47161;SDS011;32921;53.256;8.198;2022-08-03T04:45:07;10.75;;;5.95;;
47161;SDS011;32921;53.256;8.198;2022-08-03T04:47:36;8.30;;;5.63;;
47161;SDS011;32921;53.256;8.198;2022-08-03T04:50:03;11.65;;;6.07;;
47161;SDS011;32921;53.256;8.198;2022-08-03T04:52:30;9.07;;;5.95;;
47161;SDS011;32921;53.256;8.198;2022-08-03T04:54:56;12.55;;;5.72;;
47161;SDS011;32921;53.256;8.198;2022-08-03T04:57:22;8.50;;;5.95;;
47161;SDS011;32921;53.256;8.198;2022-08-03T04:59:48;10.20;;;7.00;;
47161;SDS011;32921;53.256;8.198;2022-08-03T05:02:20;11.98;;;6.47;;
47161;SDS011;32921;53.256;8.198;2022-08-03T05:04:46;9.13;;;6.35;;
47161;SDS011;32921;53.256;8.198;2022-08-03T05:07:13;10.60;;;7.00;;
47161;SDS011;32921;53.256;8.198;2022-08-03T05:09:39;10.20;;;6.45;;
47161;SDS011;32921;53.256;8.198;2022-08-03T05:12:05;11.10;;;6.45;;
47161;SDS011;32921;53.256;8.198;2022-08-03T05:14:32;13.68;;;6.78;;
47161;SDS011;32921;53.256;8.198;2022-08-03T05:16:58;9.73;;;6.78;;
47161;SDS011;32921;53.256;8.198;2022-08-03T05:19:23;9.07;;;6.35;;
47161;SDS011;32921;53.256;8.198;2022-08-03T05:21:49;9.52;;;6.28;;
47161;SDS011;32921;53.256;8.198;2022-08-03T05:24:15;13.65;;;6.60;;
47161;SDS011;32921;53.256;8.198;2022-08-03T05:26:41;10.40;;;6.10;;
47161;SDS011;32921;53.256;8.198;2022-08-03T05:29:06;10.60;;;6.45;;
47161;SDS011;32921;53.256;8.198;2022-08-03T05:31:32;10.52;;;5.60;;
47161;SDS011;32921;53.256;8.198;2022-08-03T05:33:58;8.73;;;6.20;;
47161;SDS011;32921;53.256;8.198;2022-08-03T05:36:23;11.80;;;5.55;;
47161;SDS011;32921;53.256;8.198;2022-08-03T05:38:49;13.07;;;6.28;;
47161;SDS011;32921;53.256;8.198;2022-08-03T05:41:14;9.32;;;5.68;;
47161;SDS011;32921;53.256;8.198;2022-08-03T05:43:40;10.20;;;5.85;;
47161;SDS011;32921;53.256;8.198;2022-08-03T05:46:05;11.23;;;5.45;;
47161;SDS011;32921;53.256;8.198;2022-08-03T05:48:31;11.65;;;5.10;;
47161;SDS011;32921;53.256;8.198;2022-08-03T05:50:56;11.73;;;4.90;;
47161;SDS011;32921;53.256;8.198;2022-08-03T05:53:23;10.45;;;4.93;;
47161;SDS011;32921;53.256;8.198;2022-08-03T05:55:50;9.00;;;4.78;;
47161;SDS011;32921;53.256;8.198;2022-08-03T05:58:15;10.48;;;4.30;;
47161;SDS011;32921;53.256;8.198;2022-08-03T06:00:41;9.10;;;4.65;;
47161;SDS011;32921;53.256;8.198;2022-08-03T06:03:07;11.88;;;4.20;;
47161;SDS011;32921;53.256;8.198;2022-08-03T06:05:32;11.60;;;3.92;;
47161;SDS011;32921;53.256;8.198;2022-08-03T06:08:00;10.27;;;3.60;;
47161;SDS011;32921;53.256;8.198;2022-08-03T06:10:27;10.00;;;3.40;;
47161;SDS011;32921;53.256;8.198;2022-08-03T06:12:52;6.78;;;3.15;;
47161;SDS011;32921;53.256;8.198;2022-08-03T06:15:18;12.25;;;3.40;;
47161;SDS011;32921;53.256;8.198;2022-08-03T06:17:47;10.95;;;3.47;;
47161;SDS011;32921;53.256;8.198;2022-08-03T06:20:17;10.90;;;3.22;;
47161;SDS011;32921;53.256;8.198;2022-08-03T06:22:44;13.17;;;3.57;;
47161;SDS011;32921;53.256;8.198;2022-08-03T06:25:10;10.95;;;2.92;;
47161;SDS011;32921;53.256;8.198;2022-08-03T06:27:35;9.40;;;3.40;;
47161;SDS011;32921;53.256;8.198;2022-08-03T06:30:11;12.75;;;3.30;;
47161;SDS011;32921;53.256;8.198;2022-08-03T06:35:59;9.60;;;3.30;;
47161;SDS011;32921;53.256;8.198;2022-08-03T06:38:25;10.98;;;2.92;;
47161;SDS011;32921;53.256;8.198;2022-08-03T06:40:50;10.05;;;2.80;;
47161;SDS011;32921;53.256;8.198;2022-08-03T06:43:16;8.50;;;3.00;;
47161;SDS011;32921;53.256;8.198;2022-08-03T06:45:41;15.10;;;2.90;;
47161;SDS011;32921;53.256;8.198;2022-08-03T06:48:08;13.43;;;2.85;;
47161;SDS011;32921;53.256;8.198;2022-08-03T06:50:35;11.20;;;2.33;;
47161;SDS011;32921;53.256;8.198;2022-08-03T06:53:03;7.50;;;2.20;;
47161;SDS011;32921;53.256;8.198;2022-08-03T06:55:29;10.70;;;2.72;;
47161;SDS011;32921;53.256;8.198;2022-08-03T06:57:55;11.10;;;2.80;;
47161;SDS011;32921;53.256;8.198;2022-08-03T07:00:20;11.65;;;2.35;;
47161;SDS011;32921;53.256;8.198;2022-08-03T07:02:46;11.02;;;2.72;;
47161;SDS011;32921;53.256;8.198;2022-08-03T07:05:12;9.55;;;2.50;;
47161;SDS011;32921;53.256;8.198;2022-08-03T07:07:38;11.70;;;2.70;;
47161;SDS011;32921;53.256;8.198;2022-08-03T07:10:05;11.18;;;2.67;;
47161;SDS011;32921;53.256;8.198;2022-08-03T07:12:32;11.77;;;2.50;;
47161;SDS011;32921;53.256;8.198;2022-08-03T07:14:59;13.68;;;2.30;;
47161;SDS011;32921;53.256;8.198;2022-08-03T07:17:26;9.65;;;2.30;;
47161;SDS011;32921;53.256;8.198;2022-08-03T07:19:52;13.48;;;2.90;;
47161;SDS011;32921;53.256;8.198;2022-08-03T07:22:18;13.15;;;2.50;;
47161;SDS011;32921;53.256;8.198;2022-08-03T07:24:44;11.30;;;2.53;;
47161;SDS011;32921;53.256;8.198;2022-08-03T07:27:10;10.25;;;2.38;;
47161;SDS011;32921;53.256;8.198;2022-08-03T07:29:36;10.98;;;2.78;;
47161;SDS011;32921;53.256;8.198;2022-08-03T07:32:02;9.65;;;2.60;;
47161;SDS011;32921;53.256;8.198;2022-08-03T07:34:29;11.18;;;2.50;;
47161;SDS011;32921;53.256;8.198;2022-08-03T07:36:55;9.60;;;2.38;;
47161;SDS011;32921;53.256;8.198;2022-08-03T07:39:20;8.93;;;2.65;;
47161;SDS011;32921;53.256;8.198;2022-08-03T07:41:46;7.03;;;2.10;;
47161;SDS011;32921;53.256;8.198;2022-08-03T07:44:14;9.52;;;2.40;;
47161;SDS011;32921;53.256;8.198;2022-08-03T07:46:40;11.13;;;2.30;;
47161;SDS011;32921;53.256;8.198;2022-08-03T07:49:05;8.02;;;2.13;;
47161;SDS011;32921;53.256;8.198;2022-08-03T07:51:31;11.77;;;2.67;;
47161;SDS011;32921;53.256;8.198;2022-08-03T07:53:56;12.20;;;2.28;;
47161;SDS011;32921;53.256;8.198;2022-08-03T07:56:23;12.23;;;2.63;;
47161;SDS011;32921;53.256;8.198;2022-08-03T07:58:52;14.10;;;2.35;;
47161;SDS011;32921;53.256;8.198;2022-08-03T08:01:18;8.88;;;2.80;;
47161;SDS011;32921;53.256;8.198;2022-08-03T08:03:44;9.15;;;2.67;;
47161;SDS011;32921;53.256;8.198;2022-08-03T08:06:11;10.43;;;2.10;;
47161;SDS011;32921;53.256;8.198;2022-08-03T08:08:37;11.23;;;2.45;;
47161;SDS011;32921;53.256;8.198;2022-08-03T08:11:03;15.18;;;2.42;;
47161;SDS011;32921;53.256;8.198;2022-08-03T08:13:29;13.93;;;2.72;;
47161;SDS011;32921;53.256;8.198;2022-08-03T08:15:54;11.07;;;2.60;;
47161;SDS011;32921;53.256;8.198;2022-08-03T08:18:20;11.25;;;2.50;;
47161;SDS011;32921;53.256;8.198;2022-08-03T08:20:46;7.35;;;2.50;;
47161;SDS011;32921;53.256;8.198;2022-08-03T08:23:12;12.13;;;2.42;;
47161;SDS011;32921;53.256;8.198;2022-08-03T08:25:37;12.38;;;2.95;;
47161;SDS011;32921;53.256;8.198;2022-08-03T08:28:03;12.13;;;2.72;;
47161;SDS011;32921;53.256;8.198;2022-08-03T08:30:29;9.52;;;2.40;;
47161;SDS011;32921;53.256;8.198;2022-08-03T08:32:56;10.93;;;2.17;;
47161;SDS011;32921;53.256;8.198;2022-08-03T08:35:22;10.57;;;2.22;;
47161;SDS011;32921;53.256;8.198;2022-08-03T08:37:47;13.43;;;2.38;;
47161;SDS011;32921;53.256;8.198;2022-08-03T08:40:13;13.60;;;2.22;;
47161;SDS011;32921;53.256;8.198;2022-08-03T08:42:40;9.35;;;2.13;;
47161;SDS011;32921;53.256;8.198;2022-08-03T08:45:07;8.48;;;2.00;;
47161;SDS011;32921;53.256;8.198;2022-08-03T08:47:35;13.10;;;2.47;;
47161;SDS011;32921;53.256;8.198;2022-08-03T08:50:03;9.38;;;2.03;;
47161;SDS011;32921;53.256;8.198;2022-08-03T08:52:29;8.20;;;2.05;;
47161;SDS011;32921;53.256;8.198;2022-08-03T08:54:58;9.85;;;2.22;;
47161;SDS011;32921;53.256;8.198;2022-08-03T08:57:25;13.55;;;2.30;;
47161;SDS011;32921;53.256;8.198;2022-08-03T08:59:57;8.30;;;2.08;;
47161;SDS011;32921;53.256;8.198;2022-08-03T09:02:26;13.88;;;2.42;;
47161;SDS011;32921;53.256;8.198;2022-08-03T09:04:54;10.45;;;2.28;;
47161;SDS011;32921;53.256;8.198;2022-08-03T09:07:21;12.65;;;2.40;;
47161;SDS011;32921;53.256;8.198;2022-08-03T09:09:47;10.20;;;2.38;;
47161;SDS011;32921;53.256;8.198;2022-08-03T09:12:12;12.65;;;2.53;;
47161;SDS011;32921;53.256;8.198;2022-08-03T09:14:39;9.38;;;2.30;;
47161;SDS011;32921;53.256;8.198;2022-08-03T09:17:04;11.55;;;2.22;;
47161;SDS011;32921;53.256;8.198;2022-08-03T09:19:30;10.35;;;2.30;;
47161;SDS011;32921;53.256;8.198;2022-08-03T09:22:10;10.07;;;2.22;;
47161;SDS011;32921;53.256;8.198;2022-08-03T09:24:38;16.80;;;2.60;;
47161;SDS011;32921;53.256;8.198;2022-08-03T09:27:20;13.23;;;2.50;;
47161;SDS011;32921;53.256;8.198;2022-08-03T09:29:50;14.73;;;2.45;;
47161;SDS011;32921;53.256;8.198;2022-08-03T09:34:47;9.70;;;2.05;;
47161;SDS011;32921;53.256;8.198;2022-08-03T09:37:14;10.77;;;2.25;;
47161;SDS011;32921;53.256;8.198;2022-08-03T09:39:41;8.05;;;2.10;;
47161;SDS011;32921;53.256;8.198;2022-08-03T09:42:08;13.32;;;2.15;;
47161;SDS011;32921;53.256;8.198;2022-08-03T09:44:36;12.02;;;2.22;;
47161;SDS011;32921;53.256;8.198;2022-08-03T09:47:03;10.60;;;2.10;;
47161;SDS011;32921;53.256;8.198;2022-08-03T09:49:30;9.80;;;2.10;;
47161;SDS011;32921;53.256;8.198;2022-08-03T09:51:56;11.60;;;2.00;;
47161;SDS011;32921;53.256;8.198;2022-08-03T09:54:29;10.93;;;2.08;;
47161;SDS011;32921;53.256;8.198;2022-08-03T09:56:55;10.38;;;2.45;;
47161;SDS011;32921;53.256;8.198;2022-08-03T09:59:23;13.00;;;2.25;;
47161;SDS011;32921;53.256;8.198;2022-08-03T10:01:50;13.60;;;2.63;;
47161;SDS011;32921;53.256;8.198;2022-08-03T10:04:16;13.75;;;2.13;;
47161;SDS011;32921;53.256;8.198;2022-08-03T10:06:42;14.02;;;2.40;;
47161;SDS011;32921;53.256;8.198;2022-08-03T10:09:10;14.27;;;2.08;;
47161;SDS011;32921;53.256;8.198;2022-08-03T10:11:41;16.50;;;2.70;;
47161;SDS011;32921;53.256;8.198;2022-08-03T10:14:09;18.65;;;2.53;;
47161;SDS011;32921;53.256;8.198;2022-08-03T10:16:42;14.70;;;2.85;;
47161;SDS011;32921;53.256;8.198;2022-08-03T10:19:09;12.07;;;2.60;;
47161;SDS011;32921;53.256;8.198;2022-08-03T10:21:36;16.58;;;2.60;;
47161;SDS011;32921;53.256;8.198;2022-08-03T10:24:05;12.27;;;2.33;;
47161;SDS011;32921;53.256;8.198;2022-08-03T10:26:33;12.85;;;2.95;;
47161;SDS011;32921;53.256;8.198;2022-08-03T10:29:02;14.85;;;2.13;;
47161;SDS011;32921;53.256;8.198;2022-08-03T10:31:33;15.02;;;2.83;;
47161;SDS011;32921;53.256;8.198;2022-08-03T10:34:04;14.48;;;2.60;;
47161;SDS011;32921;53.256;8.198;2022-08-03T10:36:35;15.32;;;2.83;;
47161;SDS011;32921;53.256;8.198;2022-08-03T10:39:04;16.23;;;2.50;;
47161;SDS011;32921;53.256;8.198;2022-08-03T10:41:31;17.60;;;3.58;;
47161;SDS011;32921;53.256;8.198;2022-08-03T10:46:29;12.25;;;2.78;;
47161;SDS011;32921;53.256;8.198;2022-08-03T10:48:57;15.13;;;2.47;;
47161;SDS011;32921;53.256;8.198;2022-08-03T10:51:23;11.98;;;2.60;;
47161;SDS011;32921;53.256;8.198;2022-08-03T10:53:55;10.70;;;2.55;;
47161;SDS011;32921;53.256;8.198;2022-08-03T10:59:15;15.60;;;3.25;;
47161;SDS011;32921;53.256;8.198;2022-08-03T11:01:49;20.13;;;3.22;;
47161;SDS011;32921;53.256;8.198;2022-08-03T11:04:17;20.48;;;3.40;;
47161;SDS011;32921;53.256;8.198;2022-08-03T11:06:44;21.75;;;3.10;;
47161;SDS011;32921;53.256;8.198;2022-08-03T11:14:11;16.75;;;3.05;;
47161;SDS011;32921;53.256;8.198;2022-08-03T11:16:40;21.25;;;3.03;;
47161;SDS011;32921;53.256;8.198;2022-08-03T11:19:08;15.82;;;2.88;;
47161;SDS011;32921;53.256;8.198;2022-08-03T11:21:55;14.32;;;2.70;;
47161;SDS011;32921;53.256;8.198;2022-08-03T11:27:22;15.80;;;3.00;;
47161;SDS011;32921;53.256;8.198;2022-08-03T11:35:13;16.63;;;2.90;;
47161;SDS011;32921;53.256;8.198;2022-08-03T11:48:35;21.55;;;3.03;;
47161;SDS011;32921;53.256;8.198;2022-08-03T11:51:06;16.23;;;3.08;;
47161;SDS011;32921;53.256;8.198;2022-08-03T11:53:43;18.33;;;3.92;;
47161;SDS011;32921;53.256;8.198;2022-08-03T11:56:11;21.85;;;3.17;;
47161;SDS011;32921;53.256;8.198;2022-08-03T11:58:42;20.98;;;3.55;;
47161;SDS011;32921;53.256;8.198;2022-08-03T12:01:16;19.52;;;2.97;;
47161;SDS011;32921;53.256;8.198;2022-08-03T12:03:43;19.30;;;3.20;;
47161;SDS011;32921;53.256;8.198;2022-08-03T12:06:10;15.77;;;3.30;;
47161;SDS011;32921;53.256;8.198;2022-08-03T12:08:37;17.10;;;3.47;;
47161;SDS011;32921;53.256;8.198;2022-08-03T12:11:05;21.15;;;3.30;;
47161;SDS011;32921;53.256;8.198;2022-08-03T12:13:36;19.10;;;3.40;;
47161;SDS011;32921;53.256;8.198;2022-08-03T12:16:15;21.75;;;3.65;;
47161;SDS011;32921;53.256;8.198;2022-08-03T12:18:42;19.17;;;3.63;;
47161;SDS011;32921;53.256;8.198;2022-08-03T12:21:09;20.10;;;3.22;;
47161;SDS011;32921;53.256;8.198;2022-08-03T12:23:35;18.92;;;3.47;;
47161;SDS011;32921;53.256;8.198;2022-08-03T12:26:03;16.27;;;3.03;;
47161;SDS011;32921;53.256;8.198;2022-08-03T12:28:33;19.05;;;3.55;;
47161;SDS011;32921;53.256;8.198;2022-08-03T12:31:01;26.42;;;3.50;;
47161;SDS011;32921;53.256;8.198;2022-08-03T12:38:28;20.80;;;3.45;;
47161;SDS011;32921;53.256;8.198;2022-08-03T12:40:56;14.45;;;2.90;;
47161;SDS011;32921;53.256;8.198;2022-08-03T12:43:26;19.83;;;3.17;;
47161;SDS011;32921;53.256;8.198;2022-08-03T12:46:05;18.67;;;3.47;;
47161;SDS011;32921;53.256;8.198;2022-08-03T12:51:29;18.88;;;3.08;;
47161;SDS011;32921;53.256;8.198;2022-08-03T12:54:16;17.15;;;2.97;;
47161;SDS011;32921;53.256;8.198;2022-08-03T12:59:25;19.85;;;3.15;;
47161;SDS011;32921;53.256;8.198;2022-08-03T13:01:55;17.13;;;2.90;;
47161;SDS011;32921;53.256;8.198;2022-08-03T13:04:28;15.68;;;3.05;;
47161;SDS011;32921;53.256;8.198;2022-08-03T13:07:02;9.18;;;2.40;;
47161;SDS011;32921;53.256;8.198;2022-08-03T13:09:29;17.67;;;3.20;;
47161;SDS011;32921;53.256;8.198;2022-08-03T13:12:06;16.85;;;3.55;;
47161;SDS011;32921;53.256;8.198;2022-08-03T13:14:40;16.70;;;2.65;;
47161;SDS011;32921;53.256;8.198;2022-08-03T13:17:07;19.50;;;3.13;;
47161;SDS011;32921;53.256;8.198;2022-08-03T13:19:33;15.27;;;3.25;;
47161;SDS011;32921;53.256;8.198;2022-08-03T13:22:00;16.15;;;3.30;;
47161;SDS011;32921;53.256;8.198;2022-08-03T13:24:36;21.10;;;3.20;;
47161;SDS011;32921;53.256;8.198;2022-08-03T13:27:02;20.23;;;2.63;;
47161;SDS011;32921;53.256;8.198;2022-08-03T13:29:30;16.60;;;3.00;;
47161;SDS011;32921;53.256;8.198;2022-08-03T13:31:56;13.88;;;2.33;;
47161;SDS011;32921;53.256;8.198;2022-08-03T13:34:21;14.35;;;2.65;;
47161;SDS011;32921;53.256;8.198;2022-08-03T13:36:47;15.02;;;2.92;;
47161;SDS011;32921;53.256;8.198;2022-08-03T13:39:12;16.17;;;3.30;;
47161;SDS011;32921;53.256;8.198;2022-08-03T13:41:38;13.38;;;2.90;;
47161;SDS011;32921;53.256;8.198;2022-08-03T13:44:03;18.17;;;2.60;;
47161;SDS011;32921;53.256;8.198;2022-08-03T13:46:29;12.07;;;3.03;;
47161;SDS011;32921;53.256;8.198;2022-08-03T13:48:54;14.55;;;2.80;;
47161;SDS011;32921;53.256;8.198;2022-08-03T13:51:20;13.82;;;2.53;;
47161;SDS011;32921;53.256;8.198;2022-08-03T13:53:45;18.35;;;2.85;;
47161;SDS011;32921;53.256;8.198;2022-08-03T13:56:11;17.40;;;3.25;;
47161;SDS011;32921;53.256;8.198;2022-08-03T13:58:36;14.13;;;2.80;;
47161;SDS011;32921;53.256;8.198;2022-08-03T14:01:02;13.40;;;2.80;;
47161;SDS011;32921;53.256;8.198;2022-08-03T14:03:28;15.75;;;2.67;;
47161;SDS011;32921;53.256;8.198;2022-08-03T14:05:53;13.55;;;2.83;;
47161;SDS011;32921;53.256;8.198;2022-08-03T14:08:19;13.18;;;2.42;;
47161;SDS011;32921;53.256;8.198;2022-08-03T14:10:44;16.90;;;2.90;;
47161;SDS011;32921;53.256;8.198;2022-08-03T14:13:10;14.00;;;2.70;;
47161;SDS011;32921;53.256;8.198;2022-08-03T14:15:39;12.23;;;2.50;;
47161;SDS011;32921;53.256;8.198;2022-08-03T14:18:06;17.75;;;2.60;;
47161;SDS011;32921;53.256;8.198;2022-08-03T14:20:32;14.57;;;2.90;;
47161;SDS011;32921;53.256;8.198;2022-08-03T14:22:57;15.95;;;2.60;;
47161;SDS011;32921;53.256;8.198;2022-08-03T14:25:23;12.82;;;2.55;;
47161;SDS011;32921;53.256;8.198;2022-08-03T14:27:49;16.63;;;2.78;;
47161;SDS011;32921;53.256;8.198;2022-08-03T14:30:14;19.13;;;3.08;;
47161;SDS011;32921;53.256;8.198;2022-08-03T14:32:40;13.10;;;2.65;;
47161;SDS011;32921;53.256;8.198;2022-08-03T14:35:06;15.30;;;2.70;;
47161;SDS011;32921;53.256;8.198;2022-08-03T14:37:32;13.77;;;2.55;;
47161;SDS011;32921;53.256;8.198;2022-08-03T14:39:57;15.35;;;2.60;;
47161;SDS011;32921;53.256;8.198;2022-08-03T14:42:23;17.45;;;2.72;;
47161;SDS011;32921;53.256;8.198;2022-08-03T14:44:49;18.13;;;2.88;;
47161;SDS011;32921;53.256;8.198;2022-08-03T14:47:15;15.00;;;2.40;;
47161;SDS011;32921;53.256;8.198;2022-08-03T14:49:40;17.15;;;3.10;;
47161;SDS011;32921;53.256;8.198;2022-08-03T14:52:06;15.27;;;3.15;;
47161;SDS011;32921;53.256;8.198;2022-08-03T14:54:32;15.80;;;2.90;;
47161;SDS011;32921;53.256;8.198;2022-08-03T14:56:58;14.25;;;2.92;;
47161;SDS011;32921;53.256;8.198;2022-08-03T14:59:24;20.25;;;3.13;;
47161;SDS011;32921;53.256;8.198;2022-08-03T15:01:49;15.55;;;2.97;;
47161;SDS011;32921;53.256;8.198;2022-08-03T15:04:15;18.65;;;3.15;;
47161;SDS011;32921;53.256;8.198;2022-08-03T15:06:40;12.13;;;2.60;;
47161;SDS011;32921;53.256;8.198;2022-08-03T15:09:06;18.85;;;2.80;;
47161;SDS011;32921;53.256;8.198;2022-08-03T15:11:32;16.40;;;2.95;;
47161;SDS011;32921;53.256;8.198;2022-08-03T15:13:58;15.57;;;3.25;;
47161;SDS011;32921;53.256;8.198;2022-08-03T15:16:23;19.98;;;3.00;;
47161;SDS011;32921;53.256;8.198;2022-08-03T15:18:49;19.95;;;3.13;;
47161;SDS011;32921;53.256;8.198;2022-08-03T15:21:14;13.80;;;2.92;;
47161;SDS011;32921;53.256;8.198;2022-08-03T15:23:40;13.02;;;2.47;;
47161;SDS011;32921;53.256;8.198;2022-08-03T15:26:05;16.48;;;2.50;;
47161;SDS011;32921;53.256;8.198;2022-08-03T15:28:31;16.00;;;2.92;;
47161;SDS011;32921;53.256;8.198;2022-08-03T15:30:57;14.48;;;2.75;;
47161;SDS011;32921;53.256;8.198;2022-08-03T15:33:23;18.48;;;3.13;;
47161;SDS011;32921;53.256;8.198;2022-08-03T15:35:48;15.68;;;2.63;;
47161;SDS011;32921;53.256;8.198;2022-08-03T15:38:14;14.25;;;2.72;;